sensor_id;sensor_type;location;lat;lon;timestamp;P1;durP1;ratioP1;P2;durP2;ratioP2
17235;SDS011;8734;59.272;17.780;2022-11-28T00:01:34;27.73;;;11.10;;
17235;SDS011;8734;59.272;17.780;2022-11-28T00:04:04;49.77;;;13.17;;
17235;SDS011;8734;59.272;17.780;2022-11-28T00:06:36;32.20;;;11.83;;
17235;SDS011;8734;59.272;17.780;2022-11-28T00:09:06;32.77;;;12.23;;
17235;SDS011;8734;59.272;17.780;2022-11-28T00:11:35;25.47;;;10.93;;
17235;SDS011;8734;59.272;17.780;2022-11-28T00:14:05;25.17;;;11.70;;
17235;SDS011;8734;59.272;17.780;2022-11-28T00:16:33;25.10;;;12.53;;
17235;SDS011;8734;59.272;17.780;2022-11-28T00:19:02;35.73;;;10.63;;
17235;SDS011;8734;59.272;17.780;2022-11-28T00:21:33;44.17;;;11.47;;
17235;SDS011;8734;59.272;17.780;2022-11-28T00:24:03;26.20;;;10.80;;
17235;SDS011;8734;59.272;17.780;2022-11-28T00:26:32;27.40;;;11.23;;
17235;SDS011;8734;59.272;17.780;2022-11-28T00:29:05;23.77;;;10.23;;
17235;SDS011;8734;59.272;17.780;2022-11-28T00:31:35;25.40;;;9.63;;
17235;SDS011;8734;59.272;17.780;2022-11-28T00:34:09;25.30;;;9.63;;
17235;SDS011;8734;59.272;17.780;2022-11-28T00:36:38;23.80;;;9.33;;
17235;SDS011;8734;59.272;17.780;2022-11-28T00:39:08;18.63;;;8.60;;
17235;SDS011;8734;59.272;17.780;2022-11-28T00:41:36;20.47;;;8.27;;
17235;SDS011;8734;59.272;17.780;2022-11-28T00:44:05;21.53;;;9.20;;
17235;SDS011;8734;59.272;17.780;2022-11-28T00:46:33;22.90;;;9.30;;
17235;SDS011;8734;59.272;17.780;2022-11-28T00:49:01;20.67;;;9.37;;
17235;SDS011;8734;59.272;17.780;2022-11-28T00:51:30;21.10;;;8.80;;
17235;SDS011;8734;59.272;17.780;2022-11-28T00:54:00;19.97;;;8.33;;
17235;SDS011;8734;59.272;17.780;2022-11-28T00:56:32;21.27;;;8.53;;
17235;SDS011;8734;59.272;17.780;2022-11-28T00:59:03;17.90;;;7.63;;
17235;SDS011;8734;59.272;17.780;2022-11-28T01:01:33;16.03;;;7.43;;
17235;SDS011;8734;59.272;17.780;2022-11-28T01:04:03;20.17;;;7.93;;
17235;SDS011;8734;59.272;17.780;2022-11-28T01:06:34;12.50;;;6.20;;
17235;SDS011;8734;59.272;17.780;2022-11-28T01:09:04;14.40;;;6.67;;
17235;SDS011;8734;59.272;17.780;2022-11-28T01:11:37;10.47;;;5.97;;
17235;SDS011;8734;59.272;17.780;2022-11-28T01:14:06;15.50;;;6.57;;
17235;SDS011;8734;59.272;17.780;2022-11-28T01:16:35;16.33;;;6.27;;
17235;SDS011;8734;59.272;17.780;2022-11-28T01:19:05;12.80;;;5.97;;
17235;SDS011;8734;59.272;17.780;2022-11-28T01:21:34;11.83;;;5.83;;
17235;SDS011;8734;59.272;17.780;2022-11-28T01:24:03;11.83;;;5.63;;
17235;SDS011;8734;59.272;17.780;2022-11-28T01:26:31;12.03;;;5.57;;
17235;SDS011;8734;59.272;17.780;2022-11-28T01:29:01;11.17;;;5.30;;
17235;SDS011;8734;59.272;17.780;2022-11-28T01:31:29;9.93;;;4.80;;
17235;SDS011;8734;59.272;17.780;2022-11-28T01:33:58;12.17;;;5.57;;
17235;SDS011;8734;59.272;17.780;2022-11-28T01:36:26;11.50;;;5.40;;
17235;SDS011;8734;59.272;17.780;2022-11-28T01:38:55;9.20;;;5.00;;
17235;SDS011;8734;59.272;17.780;2022-11-28T01:41:25;13.40;;;5.53;;
17235;SDS011;8734;59.272;17.780;2022-11-28T01:43:57;12.13;;;5.53;;
17235;SDS011;8734;59.272;17.780;2022-11-28T01:46:33;8.37;;;4.90;;
17235;SDS011;8734;59.272;17.780;2022-11-28T01:49:02;14.10;;;5.00;;
17235;SDS011;8734;59.272;17.780;2022-11-28T01:51:35;12.17;;;4.80;;
17235;SDS011;8734;59.272;17.780;2022-11-28T01:54:05;15.87;;;6.20;;
17235;SDS011;8734;59.272;17.780;2022-11-28T01:56:37;12.97;;;5.20;;
17235;SDS011;8734;59.272;17.780;2022-11-28T01:59:11;17.13;;;5.80;;
17235;SDS011;8734;59.272;17.780;2022-11-28T02:01:42;14.37;;;5.57;;
17235;SDS011;8734;59.272;17.780;2022-11-28T02:04:12;12.47;;;4.77;;
17235;SDS011;8734;59.272;17.780;2022-11-28T02:06:41;15.43;;;5.50;;
17235;SDS011;8734;59.272;17.780;2022-11-28T02:09:10;10.77;;;5.17;;
17235;SDS011;8734;59.272;17.780;2022-11-28T02:11:46;13.90;;;6.17;;
17235;SDS011;8734;59.272;17.780;2022-11-28T02:17:50;20.10;;;6.47;;
17235;SDS011;8734;59.272;17.780;2022-11-28T02:23:32;15.17;;;6.63;;
17235;SDS011;8734;59.272;17.780;2022-11-28T02:26:31;14.60;;;6.53;;
17235;SDS011;8734;59.272;17.780;2022-11-28T02:29:43;13.67;;;6.63;;
17235;SDS011;8734;59.272;17.780;2022-11-28T02:32:34;12.80;;;6.37;;
17235;SDS011;8734;59.272;17.780;2022-11-28T02:35:12;18.60;;;6.40;;
17235;SDS011;8734;59.272;17.780;2022-11-28T02:37:59;24.50;;;7.00;;
17235;SDS011;8734;59.272;17.780;2022-11-28T02:40:36;15.60;;;7.00;;
17235;SDS011;8734;59.272;17.780;2022-11-28T02:43:11;17.70;;;7.23;;
17235;SDS011;8734;59.272;17.780;2022-11-28T02:45:45;15.90;;;6.97;;
17235;SDS011;8734;59.272;17.780;2022-11-28T02:48:23;17.13;;;6.97;;
17235;SDS011;8734;59.272;17.780;2022-11-28T02:50:57;16.17;;;7.07;;
17235;SDS011;8734;59.272;17.780;2022-11-28T02:53:33;12.17;;;6.40;;
17235;SDS011;8734;59.272;17.780;2022-11-28T02:56:04;15.27;;;7.27;;
17235;SDS011;8734;59.272;17.780;2022-11-28T02:58:32;17.27;;;7.17;;
17235;SDS011;8734;59.272;17.780;2022-11-28T03:01:02;17.87;;;6.90;;
17235;SDS011;8734;59.272;17.780;2022-11-28T03:03:37;14.73;;;6.93;;
17235;SDS011;8734;59.272;17.780;2022-11-28T03:06:17;16.47;;;7.67;;
17235;SDS011;8734;59.272;17.780;2022-11-28T03:12:02;16.47;;;7.23;;
17235;SDS011;8734;59.272;17.780;2022-11-28T03:14:44;14.97;;;7.03;;
17235;SDS011;8734;59.272;17.780;2022-11-28T03:17:19;14.57;;;7.10;;
17235;SDS011;8734;59.272;17.780;2022-11-28T03:19:57;21.33;;;8.20;;
17235;SDS011;8734;59.272;17.780;2022-11-28T03:22:38;18.53;;;7.17;;
17235;SDS011;8734;59.272;17.780;2022-11-28T03:25:15;14.67;;;7.57;;
17235;SDS011;8734;59.272;17.780;2022-11-28T03:27:50;17.13;;;8.27;;
17235;SDS011;8734;59.272;17.780;2022-11-28T03:30:24;15.30;;;7.10;;
17235;SDS011;8734;59.272;17.780;2022-11-28T03:32:58;18.07;;;7.27;;
17235;SDS011;8734;59.272;17.780;2022-11-28T03:35:31;92.80;;;9.87;;
17235;SDS011;8734;59.272;17.780;2022-11-28T03:38:05;13.43;;;7.40;;
17235;SDS011;8734;59.272;17.780;2022-11-28T03:40:38;11.97;;;6.83;;
17235;SDS011;8734;59.272;17.780;2022-11-28T03:43:12;17.00;;;6.97;;
17235;SDS011;8734;59.272;17.780;2022-11-28T03:45:44;40.10;;;7.13;;
17235;SDS011;8734;59.272;17.780;2022-11-28T03:48:17;18.97;;;7.20;;
17235;SDS011;8734;59.272;17.780;2022-11-28T03:50:52;28.40;;;8.00;;
17235;SDS011;8734;59.272;17.780;2022-11-28T03:53:25;18.33;;;7.47;;
17235;SDS011;8734;59.272;17.780;2022-11-28T03:55:58;27.10;;;8.57;;
17235;SDS011;8734;59.272;17.780;2022-11-28T03:58:32;18.87;;;8.33;;
17235;SDS011;8734;59.272;17.780;2022-11-28T04:01:05;22.87;;;7.80;;
17235;SDS011;8734;59.272;17.780;2022-11-28T04:03:39;19.23;;;7.97;;
17235;SDS011;8734;59.272;17.780;2022-11-28T04:06:17;17.80;;;6.97;;
17235;SDS011;8734;59.272;17.780;2022-11-28T04:08:52;15.30;;;6.53;;
17235;SDS011;8734;59.272;17.780;2022-11-28T04:11:30;16.93;;;6.80;;
17235;SDS011;8734;59.272;17.780;2022-11-28T04:14:05;15.63;;;6.37;;
17235;SDS011;8734;59.272;17.780;2022-11-28T04:16:40;14.33;;;6.63;;
17235;SDS011;8734;59.272;17.780;2022-11-28T04:19:21;14.77;;;6.97;;
17235;SDS011;8734;59.272;17.780;2022-11-28T04:21:57;16.33;;;5.93;;
17235;SDS011;8734;59.272;17.780;2022-11-28T04:24:30;13.67;;;6.63;;
17235;SDS011;8734;59.272;17.780;2022-11-28T04:27:02;13.27;;;6.13;;
17235;SDS011;8734;59.272;17.780;2022-11-28T04:29:35;13.47;;;6.40;;
17235;SDS011;8734;59.272;17.780;2022-11-28T04:32:06;26.80;;;6.93;;
17235;SDS011;8734;59.272;17.780;2022-11-28T04:34:37;12.63;;;6.27;;
17235;SDS011;8734;59.272;17.780;2022-11-28T04:37:11;17.60;;;6.93;;
17235;SDS011;8734;59.272;17.780;2022-11-28T04:39:42;12.90;;;5.87;;
17235;SDS011;8734;59.272;17.780;2022-11-28T04:42:14;18.60;;;5.97;;
17235;SDS011;8734;59.272;17.780;2022-11-28T04:44:46;20.33;;;7.93;;
17235;SDS011;8734;59.272;17.780;2022-11-28T04:47:20;173.33;;;11.97;;
17235;SDS011;8734;59.272;17.780;2022-11-28T04:49:49;18.00;;;6.97;;
17235;SDS011;8734;59.272;17.780;2022-11-28T04:52:19;24.33;;;6.77;;
17235;SDS011;8734;59.272;17.780;2022-11-28T04:54:53;15.53;;;7.07;;
17235;SDS011;8734;59.272;17.780;2022-11-28T04:57:27;15.13;;;6.80;;
17235;SDS011;8734;59.272;17.780;2022-11-28T05:00:00;16.17;;;7.37;;
17235;SDS011;8734;59.272;17.780;2022-11-28T05:02:32;18.90;;;7.13;;
17235;SDS011;8734;59.272;17.780;2022-11-28T05:05:05;14.13;;;6.53;;
17235;SDS011;8734;59.272;17.780;2022-11-28T05:07:36;13.40;;;5.93;;
17235;SDS011;8734;59.272;17.780;2022-11-28T05:10:05;16.17;;;6.70;;
17235;SDS011;8734;59.272;17.780;2022-11-28T05:12:34;23.40;;;6.63;;
17235;SDS011;8734;59.272;17.780;2022-11-28T05:15:02;16.57;;;7.00;;
17235;SDS011;8734;59.272;17.780;2022-11-28T05:17:32;17.83;;;6.97;;
17235;SDS011;8734;59.272;17.780;2022-11-28T05:20:07;17.10;;;6.53;;
17235;SDS011;8734;59.272;17.780;2022-11-28T05:22:37;19.03;;;7.17;;
17235;SDS011;8734;59.272;17.780;2022-11-28T05:25:06;16.27;;;6.50;;
17235;SDS011;8734;59.272;17.780;2022-11-28T05:27:34;16.03;;;7.17;;
17235;SDS011;8734;59.272;17.780;2022-11-28T05:30:04;13.40;;;6.80;;
17235;SDS011;8734;59.272;17.780;2022-11-28T05:32:33;14.73;;;7.20;;
17235;SDS011;8734;59.272;17.780;2022-11-28T05:35:02;18.97;;;7.60;;
17235;SDS011;8734;59.272;17.780;2022-11-28T05:37:31;14.90;;;7.27;;
17235;SDS011;8734;59.272;17.780;2022-11-28T05:40:01;22.20;;;8.27;;
17235;SDS011;8734;59.272;17.780;2022-11-28T05:42:30;21.30;;;8.13;;
17235;SDS011;8734;59.272;17.780;2022-11-28T05:45:00;28.73;;;10.70;;
17235;SDS011;8734;59.272;17.780;2022-11-28T05:47:28;27.30;;;9.47;;
17235;SDS011;8734;59.272;17.780;2022-11-28T05:49:57;23.10;;;9.40;;
17235;SDS011;8734;59.272;17.780;2022-11-28T05:52:26;22.60;;;8.10;;
17235;SDS011;8734;59.272;17.780;2022-11-28T05:54:57;25.50;;;8.87;;
17235;SDS011;8734;59.272;17.780;2022-11-28T05:57:28;26.60;;;8.53;;
17235;SDS011;8734;59.272;17.780;2022-11-28T05:59:58;21.77;;;9.03;;
17235;SDS011;8734;59.272;17.780;2022-11-28T06:02:27;16.60;;;6.83;;
17235;SDS011;8734;59.272;17.780;2022-11-28T06:04:55;21.97;;;8.30;;
17235;SDS011;8734;59.272;17.780;2022-11-28T06:07:41;23.90;;;8.93;;
17235;SDS011;8734;59.272;17.780;2022-11-28T06:10:10;21.10;;;8.43;;
17235;SDS011;8734;59.272;17.780;2022-11-28T06:12:40;20.23;;;7.20;;
17235;SDS011;8734;59.272;17.780;2022-11-28T06:15:08;25.20;;;8.00;;
17235;SDS011;8734;59.272;17.780;2022-11-28T06:17:38;17.17;;;7.80;;
17235;SDS011;8734;59.272;17.780;2022-11-28T06:20:06;17.03;;;7.97;;
17235;SDS011;8734;59.272;17.780;2022-11-28T06:22:35;29.27;;;8.47;;
17235;SDS011;8734;59.272;17.780;2022-11-28T06:25:03;25.57;;;8.77;;
17235;SDS011;8734;59.272;17.780;2022-11-28T06:27:33;26.87;;;9.90;;
17235;SDS011;8734;59.272;17.780;2022-11-28T06:30:04;72.83;;;10.03;;
17235;SDS011;8734;59.272;17.780;2022-11-28T06:32:33;27.00;;;8.57;;
17235;SDS011;8734;59.272;17.780;2022-11-28T06:35:01;26.53;;;10.97;;
17235;SDS011;8734;59.272;17.780;2022-11-28T06:37:29;26.57;;;10.50;;
17235;SDS011;8734;59.272;17.780;2022-11-28T06:39:58;36.50;;;11.33;;
17235;SDS011;8734;59.272;17.780;2022-11-28T06:42:26;32.00;;;12.13;;
17235;SDS011;8734;59.272;17.780;2022-11-28T06:44:55;32.53;;;11.53;;
17235;SDS011;8734;59.272;17.780;2022-11-28T06:47:24;32.70;;;11.67;;
17235;SDS011;8734;59.272;17.780;2022-11-28T06:49:52;33.57;;;12.07;;
17235;SDS011;8734;59.272;17.780;2022-11-28T06:52:21;39.43;;;12.43;;
17235;SDS011;8734;59.272;17.780;2022-11-28T06:54:49;37.13;;;13.13;;
17235;SDS011;8734;59.272;17.780;2022-11-28T06:57:17;39.33;;;12.30;;
17235;SDS011;8734;59.272;17.780;2022-11-28T06:59:46;33.60;;;12.00;;
17235;SDS011;8734;59.272;17.780;2022-11-28T07:02:15;37.07;;;12.80;;
17235;SDS011;8734;59.272;17.780;2022-11-28T07:04:45;42.17;;;12.03;;
17235;SDS011;8734;59.272;17.780;2022-11-28T07:07:13;33.43;;;12.40;;
17235;SDS011;8734;59.272;17.780;2022-11-28T07:09:42;42.00;;;13.97;;
17235;SDS011;8734;59.272;17.780;2022-11-28T07:12:10;35.70;;;12.77;;
17235;SDS011;8734;59.272;17.780;2022-11-28T07:14:40;34.60;;;12.67;;
17235;SDS011;8734;59.272;17.780;2022-11-28T07:17:08;50.53;;;12.57;;
17235;SDS011;8734;59.272;17.780;2022-11-28T07:19:38;43.13;;;12.67;;
17235;SDS011;8734;59.272;17.780;2022-11-28T07:22:09;45.27;;;13.37;;
17235;SDS011;8734;59.272;17.780;2022-11-28T07:24:38;37.70;;;11.43;;
17235;SDS011;8734;59.272;17.780;2022-11-28T07:27:06;42.20;;;12.67;;
17235;SDS011;8734;59.272;17.780;2022-11-28T07:29:34;34.23;;;11.67;;
17235;SDS011;8734;59.272;17.780;2022-11-28T07:32:03;43.40;;;13.23;;
17235;SDS011;8734;59.272;17.780;2022-11-28T07:34:33;37.00;;;11.90;;
17235;SDS011;8734;59.272;17.780;2022-11-28T07:37:01;34.10;;;11.73;;
17235;SDS011;8734;59.272;17.780;2022-11-28T07:39:31;33.87;;;12.10;;
17235;SDS011;8734;59.272;17.780;2022-11-28T07:41:59;40.03;;;12.60;;
17235;SDS011;8734;59.272;17.780;2022-11-28T07:44:27;44.60;;;14.47;;
17235;SDS011;8734;59.272;17.780;2022-11-28T07:46:56;44.53;;;13.43;;
17235;SDS011;8734;59.272;17.780;2022-11-28T07:49:24;46.17;;;14.30;;
17235;SDS011;8734;59.272;17.780;2022-11-28T07:51:53;41.90;;;13.67;;
17235;SDS011;8734;59.272;17.780;2022-11-28T07:54:21;42.23;;;13.37;;
17235;SDS011;8734;59.272;17.780;2022-11-28T07:56:51;45.57;;;13.63;;
17235;SDS011;8734;59.272;17.780;2022-11-28T07:59:38;40.60;;;13.50;;
17235;SDS011;8734;59.272;17.780;2022-11-28T08:02:07;40.13;;;14.37;;
17235;SDS011;8734;59.272;17.780;2022-11-28T08:04:36;44.77;;;14.10;;
17235;SDS011;8734;59.272;17.780;2022-11-28T08:07:13;52.93;;;14.97;;
17235;SDS011;8734;59.272;17.780;2022-11-28T08:09:42;42.60;;;14.57;;
17235;SDS011;8734;59.272;17.780;2022-11-28T08:12:12;48.17;;;16.73;;
17235;SDS011;8734;59.272;17.780;2022-11-28T08:14:40;41.90;;;15.03;;
17235;SDS011;8734;59.272;17.780;2022-11-28T08:17:09;42.63;;;14.43;;
17235;SDS011;8734;59.272;17.780;2022-11-28T08:19:38;42.80;;;13.80;;
17235;SDS011;8734;59.272;17.780;2022-11-28T08:22:06;34.97;;;12.93;;
17235;SDS011;8734;59.272;17.780;2022-11-28T08:24:35;46.67;;;13.80;;
17235;SDS011;8734;59.272;17.780;2022-11-28T08:27:03;50.40;;;13.83;;
17235;SDS011;8734;59.272;17.780;2022-11-28T08:29:33;36.07;;;13.60;;
17235;SDS011;8734;59.272;17.780;2022-11-28T08:32:02;36.23;;;13.87;;
17235;SDS011;8734;59.272;17.780;2022-11-28T08:34:31;41.03;;;14.23;;
17235;SDS011;8734;59.272;17.780;2022-11-28T08:36:59;42.97;;;14.50;;
17235;SDS011;8734;59.272;17.780;2022-11-28T08:39:27;43.70;;;13.37;;
17235;SDS011;8734;59.272;17.780;2022-11-28T08:41:55;48.63;;;13.83;;
17235;SDS011;8734;59.272;17.780;2022-11-28T08:44:25;38.63;;;12.77;;
17235;SDS011;8734;59.272;17.780;2022-11-28T08:46:57;42.03;;;13.43;;
17235;SDS011;8734;59.272;17.780;2022-11-28T08:49:25;46.20;;;13.07;;
17235;SDS011;8734;59.272;17.780;2022-11-28T08:51:54;47.30;;;14.77;;
17235;SDS011;8734;59.272;17.780;2022-11-28T08:54:24;45.13;;;14.00;;
17235;SDS011;8734;59.272;17.780;2022-11-28T08:56:52;42.37;;;12.83;;
17235;SDS011;8734;59.272;17.780;2022-11-28T08:59:20;37.20;;;12.03;;
17235;SDS011;8734;59.272;17.780;2022-11-28T09:01:50;47.50;;;14.00;;
17235;SDS011;8734;59.272;17.780;2022-11-28T09:04:21;34.60;;;11.97;;
17235;SDS011;8734;59.272;17.780;2022-11-28T09:06:50;38.37;;;12.47;;
17235;SDS011;8734;59.272;17.780;2022-11-28T09:09:19;37.93;;;11.67;;
17235;SDS011;8734;59.272;17.780;2022-11-28T09:11:48;28.93;;;10.87;;
17235;SDS011;8734;59.272;17.780;2022-11-28T09:14:16;34.13;;;11.07;;
17235;SDS011;8734;59.272;17.780;2022-11-28T09:16:44;32.53;;;11.50;;
17235;SDS011;8734;59.272;17.780;2022-11-28T09:19:13;28.87;;;10.77;;
17235;SDS011;8734;59.272;17.780;2022-11-28T09:21:43;36.07;;;11.83;;
17235;SDS011;8734;59.272;17.780;2022-11-28T09:24:11;28.60;;;12.07;;
17235;SDS011;8734;59.272;17.780;2022-11-28T09:26:40;36.03;;;13.03;;
17235;SDS011;8734;59.272;17.780;2022-11-28T09:29:09;38.17;;;13.43;;
17235;SDS011;8734;59.272;17.780;2022-11-28T09:31:37;38.47;;;13.70;;
17235;SDS011;8734;59.272;17.780;2022-11-28T09:34:13;40.93;;;14.73;;
17235;SDS011;8734;59.272;17.780;2022-11-28T09:36:42;42.67;;;13.17;;
17235;SDS011;8734;59.272;17.780;2022-11-28T09:39:11;38.33;;;14.53;;
17235;SDS011;8734;59.272;17.780;2022-11-28T09:41:41;36.43;;;13.50;;
17235;SDS011;8734;59.272;17.780;2022-11-28T09:44:17;35.37;;;12.13;;
17235;SDS011;8734;59.272;17.780;2022-11-28T09:46:50;29.37;;;11.23;;
17235;SDS011;8734;59.272;17.780;2022-11-28T09:49:23;21.27;;;10.13;;
17235;SDS011;8734;59.272;17.780;2022-11-28T09:52:08;26.87;;;11.57;;
17235;SDS011;8734;59.272;17.780;2022-11-28T09:54:48;19.03;;;9.87;;
17235;SDS011;8734;59.272;17.780;2022-11-28T09:57:24;24.20;;;9.87;;
17235;SDS011;8734;59.272;17.780;2022-11-28T09:59:59;19.90;;;9.37;;
17235;SDS011;8734;59.272;17.780;2022-11-28T10:02:30;17.43;;;8.83;;
17235;SDS011;8734;59.272;17.780;2022-11-28T10:05:04;20.43;;;9.97;;
17235;SDS011;8734;59.272;17.780;2022-11-28T10:07:46;23.33;;;9.03;;
17235;SDS011;8734;59.272;17.780;2022-11-28T10:10:34;19.53;;;9.07;;
17235;SDS011;8734;59.272;17.780;2022-11-28T10:13:08;22.57;;;9.47;;
17235;SDS011;8734;59.272;17.780;2022-11-28T10:15:46;21.57;;;9.67;;
17235;SDS011;8734;59.272;17.780;2022-11-28T10:18:25;20.67;;;9.90;;
17235;SDS011;8734;59.272;17.780;2022-11-28T10:21:01;20.83;;;10.43;;
17235;SDS011;8734;59.272;17.780;2022-11-28T10:23:39;17.60;;;9.03;;
17235;SDS011;8734;59.272;17.780;2022-11-28T10:26:12;19.30;;;8.27;;
17235;SDS011;8734;59.272;17.780;2022-11-28T10:28:45;16.93;;;8.40;;
17235;SDS011;8734;59.272;17.780;2022-11-28T10:31:18;14.73;;;8.07;;
17235;SDS011;8734;59.272;17.780;2022-11-28T10:33:53;15.17;;;7.67;;
17235;SDS011;8734;59.272;17.780;2022-11-28T10:36:29;17.90;;;8.00;;
17235;SDS011;8734;59.272;17.780;2022-11-28T10:39:04;17.73;;;8.73;;
17235;SDS011;8734;59.272;17.780;2022-11-28T10:41:39;16.83;;;8.30;;
17235;SDS011;8734;59.272;17.780;2022-11-28T10:44:14;21.00;;;8.90;;
17235;SDS011;8734;59.272;17.780;2022-11-28T10:46:49;17.77;;;8.70;;
17235;SDS011;8734;59.272;17.780;2022-11-28T10:49:28;17.17;;;8.37;;
17235;SDS011;8734;59.272;17.780;2022-11-28T10:52:07;18.37;;;8.83;;
17235;SDS011;8734;59.272;17.780;2022-11-28T10:54:46;21.97;;;8.40;;
17235;SDS011;8734;59.272;17.780;2022-11-28T10:57:25;18.83;;;8.97;;
17235;SDS011;8734;59.272;17.780;2022-11-28T11:00:00;24.63;;;10.70;;
17235;SDS011;8734;59.272;17.780;2022-11-28T11:02:36;27.10;;;10.50;;
17235;SDS011;8734;59.272;17.780;2022-11-28T11:05:10;23.97;;;10.23;;
17235;SDS011;8734;59.272;17.780;2022-11-28T11:07:42;23.30;;;10.73;;
17235;SDS011;8734;59.272;17.780;2022-11-28T11:10:17;26.93;;;10.73;;
17235;SDS011;8734;59.272;17.780;2022-11-28T11:12:47;23.20;;;10.57;;
17235;SDS011;8734;59.272;17.780;2022-11-28T11:15:19;24.90;;;10.93;;
17235;SDS011;8734;59.272;17.780;2022-11-28T11:17:50;23.67;;;10.77;;
17235;SDS011;8734;59.272;17.780;2022-11-28T11:20:32;23.27;;;10.93;;
17235;SDS011;8734;59.272;17.780;2022-11-28T11:23:10;22.70;;;9.90;;
17235;SDS011;8734;59.272;17.780;2022-11-28T11:25:47;19.07;;;10.17;;
17235;SDS011;8734;59.272;17.780;2022-11-28T11:28:25;18.70;;;8.87;;
17235;SDS011;8734;59.272;17.780;2022-11-28T11:31:00;14.93;;;8.03;;
17235;SDS011;8734;59.272;17.780;2022-11-28T11:33:32;16.93;;;8.40;;
17235;SDS011;8734;59.272;17.780;2022-11-28T11:36:02;14.13;;;7.27;;
17235;SDS011;8734;59.272;17.780;2022-11-28T11:38:32;11.93;;;6.77;;
17235;SDS011;8734;59.272;17.780;2022-11-28T11:41:18;14.20;;;7.63;;
17235;SDS011;8734;59.272;17.780;2022-11-28T11:43:56;13.30;;;7.47;;
17235;SDS011;8734;59.272;17.780;2022-11-28T11:46:54;11.37;;;6.80;;
17235;SDS011;8734;59.272;17.780;2022-11-28T11:49:28;15.27;;;7.53;;
17235;SDS011;8734;59.272;17.780;2022-11-28T11:51:58;11.87;;;6.40;;
17235;SDS011;8734;59.272;17.780;2022-11-28T11:54:29;11.53;;;6.63;;
17235;SDS011;8734;59.272;17.780;2022-11-28T11:56:59;14.37;;;7.17;;
17235;SDS011;8734;59.272;17.780;2022-11-28T11:59:50;12.87;;;7.43;;
17235;SDS011;8734;59.272;17.780;2022-11-28T12:02:23;14.50;;;7.60;;
17235;SDS011;8734;59.272;17.780;2022-11-28T12:05:00;17.70;;;7.43;;
17235;SDS011;8734;59.272;17.780;2022-11-28T12:07:32;15.70;;;7.60;;
17235;SDS011;8734;59.272;17.780;2022-11-28T12:10:06;17.60;;;8.07;;
17235;SDS011;8734;59.272;17.780;2022-11-28T12:12:41;20.53;;;8.50;;
17235;SDS011;8734;59.272;17.780;2022-11-28T12:15:16;15.03;;;7.93;;
17235;SDS011;8734;59.272;17.780;2022-11-28T12:17:54;16.40;;;7.93;;
17235;SDS011;8734;59.272;17.780;2022-11-28T12:20:40;15.60;;;6.90;;
17235;SDS011;8734;59.272;17.780;2022-11-28T12:23:22;15.43;;;7.30;;
17235;SDS011;8734;59.272;17.780;2022-11-28T12:26:03;14.83;;;7.63;;
17235;SDS011;8734;59.272;17.780;2022-11-28T12:28:41;15.97;;;7.87;;
17235;SDS011;8734;59.272;17.780;2022-11-28T12:31:24;15.20;;;7.67;;
17235;SDS011;8734;59.272;17.780;2022-11-28T12:34:09;14.33;;;7.30;;
17235;SDS011;8734;59.272;17.780;2022-11-28T12:36:48;14.27;;;6.20;;
17235;SDS011;8734;59.272;17.780;2022-11-28T12:39:24;12.63;;;6.10;;
17235;SDS011;8734;59.272;17.780;2022-11-28T12:42:24;11.10;;;5.50;;
17235;SDS011;8734;59.272;17.780;2022-11-28T12:45:18;11.30;;;6.17;;
17235;SDS011;8734;59.272;17.780;2022-11-28T12:48:08;10.73;;;6.27;;
17235;SDS011;8734;59.272;17.780;2022-11-28T12:50:47;11.90;;;6.47;;
17235;SDS011;8734;59.272;17.780;2022-11-28T12:53:27;11.23;;;6.67;;
17235;SDS011;8734;59.272;17.780;2022-11-28T12:56:21;15.73;;;6.73;;
17235;SDS011;8734;59.272;17.780;2022-11-28T12:59:01;13.00;;;6.93;;
17235;SDS011;8734;59.272;17.780;2022-11-28T13:01:44;12.87;;;6.97;;
17235;SDS011;8734;59.272;17.780;2022-11-28T13:04:27;11.67;;;6.43;;
17235;SDS011;8734;59.272;17.780;2022-11-28T13:07:17;12.63;;;7.10;;
17235;SDS011;8734;59.272;17.780;2022-11-28T13:09:57;12.40;;;7.47;;
17235;SDS011;8734;59.272;17.780;2022-11-28T13:12:34;14.13;;;7.27;;
17235;SDS011;8734;59.272;17.780;2022-11-28T13:15:12;14.73;;;7.40;;
17235;SDS011;8734;59.272;17.780;2022-11-28T13:17:52;14.70;;;7.23;;
17235;SDS011;8734;59.272;17.780;2022-11-28T13:20:27;19.37;;;8.03;;
17235;SDS011;8734;59.272;17.780;2022-11-28T13:23:02;14.23;;;7.57;;
17235;SDS011;8734;59.272;17.780;2022-11-28T13:25:39;17.00;;;7.30;;
17235;SDS011;8734;59.272;17.780;2022-11-28T13:28:17;13.20;;;7.07;;
17235;SDS011;8734;59.272;17.780;2022-11-28T13:30:49;20.13;;;8.87;;
17235;SDS011;8734;59.272;17.780;2022-11-28T13:33:26;20.93;;;8.83;;
17235;SDS011;8734;59.272;17.780;2022-11-28T13:36:04;22.33;;;9.70;;
17235;SDS011;8734;59.272;17.780;2022-11-28T13:39:00;16.60;;;8.53;;
17235;SDS011;8734;59.272;17.780;2022-11-28T13:41:39;19.07;;;9.23;;
17235;SDS011;8734;59.272;17.780;2022-11-28T13:44:32;18.63;;;9.90;;
17235;SDS011;8734;59.272;17.780;2022-11-28T13:47:12;17.07;;;9.00;;
17235;SDS011;8734;59.272;17.780;2022-11-28T13:49:43;17.30;;;9.33;;
17235;SDS011;8734;59.272;17.780;2022-11-28T13:52:30;19.77;;;10.40;;
17235;SDS011;8734;59.272;17.780;2022-11-28T13:55:00;18.47;;;9.00;;
17235;SDS011;8734;59.272;17.780;2022-11-28T13:57:29;18.73;;;9.23;;
17235;SDS011;8734;59.272;17.780;2022-11-28T14:00:05;14.07;;;7.97;;
17235;SDS011;8734;59.272;17.780;2022-11-28T14:02:48;14.77;;;8.43;;
17235;SDS011;8734;59.272;17.780;2022-11-28T14:08:07;16.63;;;8.83;;
17235;SDS011;8734;59.272;17.780;2022-11-28T14:11:00;14.77;;;8.43;;
17235;SDS011;8734;59.272;17.780;2022-11-28T14:16:36;19.07;;;9.20;;
17235;SDS011;8734;59.272;17.780;2022-11-28T14:19:21;15.43;;;7.93;;
17235;SDS011;8734;59.272;17.780;2022-11-28T14:22:01;13.10;;;7.77;;
17235;SDS011;8734;59.272;17.780;2022-11-28T14:24:51;13.47;;;7.30;;
17235;SDS011;8734;59.272;17.780;2022-11-28T14:27:24;13.50;;;7.03;;
17235;SDS011;8734;59.272;17.780;2022-11-28T14:29:55;13.43;;;7.37;;
17235;SDS011;8734;59.272;17.780;2022-11-28T14:32:27;10.60;;;6.80;;
17235;SDS011;8734;59.272;17.780;2022-11-28T14:35:00;11.10;;;6.97;;
17235;SDS011;8734;59.272;17.780;2022-11-28T14:43:35;11.83;;;7.20;;
17235;SDS011;8734;59.272;17.780;2022-11-28T14:46:24;22.43;;;7.90;;
17235;SDS011;8734;59.272;17.780;2022-11-28T14:49:18;15.27;;;7.53;;
17235;SDS011;8734;59.272;17.780;2022-11-28T14:52:04;14.33;;;7.67;;
17235;SDS011;8734;59.272;17.780;2022-11-28T14:54:56;17.50;;;8.63;;
17235;SDS011;8734;59.272;17.780;2022-11-28T14:57:26;15.13;;;7.60;;
17235;SDS011;8734;59.272;17.780;2022-11-28T14:59:59;18.27;;;9.17;;
17235;SDS011;8734;59.272;17.780;2022-11-28T15:02:42;14.43;;;8.10;;
17235;SDS011;8734;59.272;17.780;2022-11-28T15:05:29;16.63;;;8.20;;
17235;SDS011;8734;59.272;17.780;2022-11-28T15:08:13;17.53;;;8.73;;
17235;SDS011;8734;59.272;17.780;2022-11-28T15:11:01;17.53;;;8.40;;
17235;SDS011;8734;59.272;17.780;2022-11-28T15:13:49;15.00;;;7.70;;
17235;SDS011;8734;59.272;17.780;2022-11-28T15:16:34;16.10;;;8.00;;
17235;SDS011;8734;59.272;17.780;2022-11-28T15:19:13;15.23;;;8.33;;
17235;SDS011;8734;59.272;17.780;2022-11-28T15:21:46;15.43;;;7.83;;
17235;SDS011;8734;59.272;17.780;2022-11-28T15:24:21;13.83;;;7.80;;
17235;SDS011;8734;59.272;17.780;2022-11-28T15:26:52;16.97;;;7.57;;
17235;SDS011;8734;59.272;17.780;2022-11-28T15:29:23;14.43;;;8.17;;
17235;SDS011;8734;59.272;17.780;2022-11-28T15:31:54;18.53;;;8.23;;